Main page
METAR-TAF:

METAR-TAF

Airports :

Santos Dumont Airport

Rio de Janeiro, Rio de Janeiro, Brazil

latitude: 22-54S, longitude: 043-10W, elevation: 3 m

Current weather observation

The report was made 17 minutes ago, at 13:00 UTC
Wind 5 kt from the North
Temperature 29°C
Humidity 79%
Pressure 1015 hPa
Visibility 10 km or more
Few clouds at a height of 2000 ft

METAR: SBRJ 261300Z 35005KT 9999 FEW020 29/25 Q1015

Time: 10:17 (13:17 UTC)

Forecast

The report was made 4 hours and 17 minutes ago, at 09:00 UTC
Forecast valid from 26 at 12 UTC to 26 at 24 UTC
Wind 5 kt from the North/Northeast
Visibility 10 km or more
Few clouds at a height of 1500 ft
Becoming
from 26 at 14 UTC to 26 at 16 UTC
Wind 15 kt from the South/Southeast
Scattered clouds at a height of 2500 ft

TAF: SBRJ 260900Z 2612/2624 02005KT 9999 FEW015 TX32/2617Z TN27/2624Z BECMG 2614/2616 16015KT SCT025 RMK PGU

Weather observations and forecasts of more than 4000 airports (METAR and TAF reports).

The available stations are represented by yellow and red dots on the map.

Hover mouse over dot to see the name of the station.

Then click to see weather observations and forecasts.

To change the map : click on the green buttons with a black cross to zoom in, on the green button with a dash to zoom out, or on the green arrows for adjacent maps.


METAR-TAF: